Terminal Aerodrome Forecast
Issued by NWS

Home | Current Version | Previous Version | Text Only | Print | Product List | Glossary On
Versions: 1 2 3 4 5 6 7 8 9 10 11 12 13 14 15 16 17
000
FTUS45 KTFX 271700 RRA
TAFHLN
TAF
KHLN 271746Z 2718/2818 VRB05KT P6SM SCT080 BKN140
     FM272300 29008KT P6SM SCT030 BKN060
      TEMPO 2801/2804 3SM -SHSN BR BKN020
     FM280400 30010KT 6SM -SHSN BR SCT010 BKN025
     FM281100 VRB05KT P6SM VCSH SCT020 BKN040=

USA.gov is the U.S. government's official web portal to all federal, state and local government web resources and services.